Terminal Aerodrome Forecast
Issued by NWS Melbourne, FL

Home | Current Version | Previous Version | Text Only | Print | Product List | Glossary On
Versions: 1 2 3 4 5 6 7 8 9 10 11 12
000
FTUS42 KMLB 282320
TAFDAB
TAF
KDAB 282320Z 2900/2924 09006KT P6SM SCT035 SCT250
     FM290200 06007KT P6SM FEW035
     FM291400 07012KT P6SM VCSH SCT035
     FM291800 06012KT P6SM SCT035=

USA.gov is the U.S. government's official web portal to all federal, state and local government web resources and services.